sensor_id;sensor_type;location;lat;lon;timestamp;P1;durP1;ratioP1;P2;durP2;ratioP2
483;SDS011;228;48.922;12.198;2022-10-19T00:01:05;7.90;;;6.90;;
483;SDS011;228;48.922;12.198;2022-10-19T00:03:33;8.73;;;6.97;;
483;SDS011;228;48.922;12.198;2022-10-19T00:06:08;11.87;;;7.13;;
483;SDS011;228;48.922;12.198;2022-10-19T00:08:53;9.10;;;7.40;;
483;SDS011;228;48.922;12.198;2022-10-19T00:11:40;8.47;;;7.10;;
483;SDS011;228;48.922;12.198;2022-10-19T00:14:11;7.97;;;7.10;;
483;SDS011;228;48.922;12.198;2022-10-19T00:16:40;8.80;;;6.93;;
483;SDS011;228;48.922;12.198;2022-10-19T00:19:10;8.77;;;6.60;;
483;SDS011;228;48.922;12.198;2022-10-19T00:21:40;9.03;;;6.57;;
483;SDS011;228;48.922;12.198;2022-10-19T00:24:07;8.33;;;6.53;;
483;SDS011;228;48.922;12.198;2022-10-19T00:26:34;7.70;;;6.30;;
483;SDS011;228;48.922;12.198;2022-10-19T00:29:00;8.33;;;6.87;;
483;SDS011;228;48.922;12.198;2022-10-19T00:31:26;7.87;;;6.47;;
483;SDS011;228;48.922;12.198;2022-10-19T00:33:54;11.43;;;6.50;;
483;SDS011;228;48.922;12.198;2022-10-19T00:36:23;8.73;;;7.80;;
483;SDS011;228;48.922;12.198;2022-10-19T00:38:52;7.93;;;6.43;;
483;SDS011;228;48.922;12.198;2022-10-19T00:41:19;10.93;;;6.17;;
483;SDS011;228;48.922;12.198;2022-10-19T00:46:24;7.80;;;6.73;;
483;SDS011;228;48.922;12.198;2022-10-19T00:48:54;8.97;;;6.40;;
483;SDS011;228;48.922;12.198;2022-10-19T00:51:27;9.00;;;6.90;;
483;SDS011;228;48.922;12.198;2022-10-19T00:53:55;9.77;;;7.00;;
483;SDS011;228;48.922;12.198;2022-10-19T00:56:22;9.43;;;7.63;;
483;SDS011;228;48.922;12.198;2022-10-19T00:58:49;11.60;;;9.13;;
483;SDS011;228;48.922;12.198;2022-10-19T01:01:16;12.00;;;8.90;;
483;SDS011;228;48.922;12.198;2022-10-19T01:03:45;11.87;;;8.43;;
483;SDS011;228;48.922;12.198;2022-10-19T01:06:12;12.50;;;9.27;;
483;SDS011;228;48.922;12.198;2022-10-19T01:08:40;17.47;;;11.07;;
483;SDS011;228;48.922;12.198;2022-10-19T01:11:16;16.43;;;10.30;;
483;SDS011;228;48.922;12.198;2022-10-19T01:20:14;17.70;;;11.47;;
483;SDS011;228;48.922;12.198;2022-10-19T01:32:37;14.57;;;10.23;;
483;SDS011;228;48.922;12.198;2022-10-19T01:35:35;15.80;;;10.90;;
483;SDS011;228;48.922;12.198;2022-10-19T01:38:46;14.17;;;10.30;;
483;SDS011;228;48.922;12.198;2022-10-19T01:41:29;14.53;;;10.40;;
483;SDS011;228;48.922;12.198;2022-10-19T01:44:15;14.83;;;10.77;;
483;SDS011;228;48.922;12.198;2022-10-19T01:47:37;15.13;;;10.30;;
483;SDS011;228;48.922;12.198;2022-10-19T01:50:12;14.50;;;10.20;;
483;SDS011;228;48.922;12.198;2022-10-19T01:52:45;13.43;;;10.03;;
483;SDS011;228;48.922;12.198;2022-10-19T01:55:15;14.77;;;10.37;;
483;SDS011;228;48.922;12.198;2022-10-19T01:57:45;16.03;;;10.37;;
483;SDS011;228;48.922;12.198;2022-10-19T02:00:17;14.57;;;9.90;;
483;SDS011;228;48.922;12.198;2022-10-19T02:02:47;14.37;;;10.03;;
483;SDS011;228;48.922;12.198;2022-10-19T02:05:16;16.13;;;10.33;;
483;SDS011;228;48.922;12.198;2022-10-19T02:07:48;13.57;;;9.63;;
483;SDS011;228;48.922;12.198;2022-10-19T02:10:25;17.87;;;9.60;;
483;SDS011;228;48.922;12.198;2022-10-19T02:12:53;21.93;;;8.57;;
483;SDS011;228;48.922;12.198;2022-10-19T02:15:20;25.10;;;8.30;;
483;SDS011;228;48.922;12.198;2022-10-19T02:17:50;14.17;;;9.13;;
483;SDS011;228;48.922;12.198;2022-10-19T02:20:21;18.03;;;8.90;;
483;SDS011;228;48.922;12.198;2022-10-19T02:22:48;12.70;;;8.87;;
483;SDS011;228;48.922;12.198;2022-10-19T02:25:15;12.17;;;8.37;;
483;SDS011;228;48.922;12.198;2022-10-19T02:27:41;11.37;;;7.90;;
483;SDS011;228;48.922;12.198;2022-10-19T02:30:08;15.23;;;8.23;;
483;SDS011;228;48.922;12.198;2022-10-19T02:32:36;13.27;;;7.97;;
483;SDS011;228;48.922;12.198;2022-10-19T02:35:02;16.87;;;7.97;;
483;SDS011;228;48.922;12.198;2022-10-19T02:37:28;16.20;;;7.57;;
483;SDS011;228;48.922;12.198;2022-10-19T02:39:54;10.93;;;8.10;;
483;SDS011;228;48.922;12.198;2022-10-19T02:42:22;10.90;;;7.60;;
483;SDS011;228;48.922;12.198;2022-10-19T02:47:36;14.27;;;7.43;;
483;SDS011;228;48.922;12.198;2022-10-19T02:50:16;27.20;;;8.73;;
483;SDS011;228;48.922;12.198;2022-10-19T02:52:44;10.67;;;7.17;;
483;SDS011;228;48.922;12.198;2022-10-19T02:55:10;13.20;;;7.60;;
483;SDS011;228;48.922;12.198;2022-10-19T02:57:36;19.27;;;6.83;;
483;SDS011;228;48.922;12.198;2022-10-19T03:00:03;12.10;;;6.43;;
483;SDS011;228;48.922;12.198;2022-10-19T03:02:31;11.13;;;6.53;;
483;SDS011;228;48.922;12.198;2022-10-19T03:04:57;9.30;;;7.13;;
483;SDS011;228;48.922;12.198;2022-10-19T03:07:23;19.50;;;7.37;;
483;SDS011;228;48.922;12.198;2022-10-19T03:09:49;21.33;;;7.80;;
483;SDS011;228;48.922;12.198;2022-10-19T03:12:16;11.00;;;7.60;;
483;SDS011;228;48.922;12.198;2022-10-19T03:14:42;12.37;;;7.30;;
483;SDS011;228;48.922;12.198;2022-10-19T03:17:09;19.00;;;6.80;;
483;SDS011;228;48.922;12.198;2022-10-19T03:19:35;13.90;;;7.10;;
483;SDS011;228;48.922;12.198;2022-10-19T03:22:02;25.77;;;6.77;;
483;SDS011;228;48.922;12.198;2022-10-19T03:24:29;8.30;;;6.40;;
483;SDS011;228;48.922;12.198;2022-10-19T03:26:56;17.43;;;6.83;;
483;SDS011;228;48.922;12.198;2022-10-19T03:29:22;16.20;;;7.83;;
483;SDS011;228;48.922;12.198;2022-10-19T03:31:48;11.80;;;7.63;;
483;SDS011;228;48.922;12.198;2022-10-19T03:34:14;13.17;;;7.33;;
483;SDS011;228;48.922;12.198;2022-10-19T03:36:40;11.57;;;7.80;;
483;SDS011;228;48.922;12.198;2022-10-19T03:39:07;17.37;;;7.50;;
483;SDS011;228;48.922;12.198;2022-10-19T03:41:39;13.57;;;6.87;;
483;SDS011;228;48.922;12.198;2022-10-19T03:44:06;11.73;;;7.60;;
483;SDS011;228;48.922;12.198;2022-10-19T03:46:33;15.30;;;7.47;;
483;SDS011;228;48.922;12.198;2022-10-19T03:49:00;11.77;;;6.43;;
483;SDS011;228;48.922;12.198;2022-10-19T03:51:29;15.03;;;7.37;;
483;SDS011;228;48.922;12.198;2022-10-19T03:53:58;14.40;;;6.73;;
483;SDS011;228;48.922;12.198;2022-10-19T03:56:31;12.53;;;7.03;;
483;SDS011;228;48.922;12.198;2022-10-19T03:58:59;15.33;;;6.50;;
483;SDS011;228;48.922;12.198;2022-10-19T04:01:27;9.30;;;6.70;;
483;SDS011;228;48.922;12.198;2022-10-19T04:03:59;18.47;;;6.80;;
483;SDS011;228;48.922;12.198;2022-10-19T04:06:28;20.17;;;7.13;;
483;SDS011;228;48.922;12.198;2022-10-19T04:09:01;13.47;;;6.80;;
483;SDS011;228;48.922;12.198;2022-10-19T04:11:28;17.07;;;7.40;;
483;SDS011;228;48.922;12.198;2022-10-19T04:13:56;14.70;;;7.83;;
483;SDS011;228;48.922;12.198;2022-10-19T04:16:23;17.37;;;6.67;;
483;SDS011;228;48.922;12.198;2022-10-19T04:18:51;13.30;;;7.10;;
483;SDS011;228;48.922;12.198;2022-10-19T04:23:59;11.30;;;6.83;;
483;SDS011;228;48.922;12.198;2022-10-19T04:26:28;15.03;;;7.40;;
483;SDS011;228;48.922;12.198;2022-10-19T04:28:58;12.30;;;6.77;;
483;SDS011;228;48.922;12.198;2022-10-19T04:31:26;10.13;;;7.20;;
483;SDS011;228;48.922;12.198;2022-10-19T04:33:53;23.50;;;7.53;;
483;SDS011;228;48.922;12.198;2022-10-19T04:36:20;20.63;;;8.27;;
483;SDS011;228;48.922;12.198;2022-10-19T04:38:46;12.33;;;7.20;;
483;SDS011;228;48.922;12.198;2022-10-19T04:41:13;17.50;;;7.43;;
483;SDS011;228;48.922;12.198;2022-10-19T04:43:42;24.63;;;7.73;;
483;SDS011;228;48.922;12.198;2022-10-19T04:46:10;12.23;;;7.10;;
483;SDS011;228;48.922;12.198;2022-10-19T04:48:39;9.53;;;6.43;;
483;SDS011;228;48.922;12.198;2022-10-19T04:51:07;10.50;;;7.53;;
483;SDS011;228;48.922;12.198;2022-10-19T04:53:34;11.70;;;7.50;;
483;SDS011;228;48.922;12.198;2022-10-19T04:56:03;26.40;;;7.33;;
483;SDS011;228;48.922;12.198;2022-10-19T04:58:32;31.37;;;8.30;;
483;SDS011;228;48.922;12.198;2022-10-19T05:01:05;23.93;;;6.90;;
483;SDS011;228;48.922;12.198;2022-10-19T05:03:37;17.23;;;6.93;;
483;SDS011;228;48.922;12.198;2022-10-19T05:06:04;15.00;;;7.80;;
483;SDS011;228;48.922;12.198;2022-10-19T05:08:31;13.60;;;7.73;;
483;SDS011;228;48.922;12.198;2022-10-19T05:11:02;12.80;;;7.17;;
483;SDS011;228;48.922;12.198;2022-10-19T05:13:38;20.17;;;8.13;;
483;SDS011;228;48.922;12.198;2022-10-19T05:16:06;17.13;;;7.73;;
483;SDS011;228;48.922;12.198;2022-10-19T05:18:36;45.67;;;8.23;;
483;SDS011;228;48.922;12.198;2022-10-19T05:21:03;26.07;;;7.73;;
483;SDS011;228;48.922;12.198;2022-10-19T05:23:32;27.83;;;7.73;;
483;SDS011;228;48.922;12.198;2022-10-19T05:26:21;22.57;;;7.37;;
483;SDS011;228;48.922;12.198;2022-10-19T05:28:52;27.23;;;8.47;;
483;SDS011;228;48.922;12.198;2022-10-19T05:31:21;28.40;;;7.37;;
483;SDS011;228;48.922;12.198;2022-10-19T05:33:52;37.93;;;7.77;;
483;SDS011;228;48.922;12.198;2022-10-19T05:39:05;27.23;;;8.17;;
483;SDS011;228;48.922;12.198;2022-10-19T05:41:43;48.23;;;8.57;;
483;SDS011;228;48.922;12.198;2022-10-19T05:44:15;19.30;;;8.53;;
483;SDS011;228;48.922;12.198;2022-10-19T05:46:43;28.70;;;8.63;;
483;SDS011;228;48.922;12.198;2022-10-19T05:49:10;27.43;;;7.87;;
483;SDS011;228;48.922;12.198;2022-10-19T05:51:37;45.63;;;8.63;;
483;SDS011;228;48.922;12.198;2022-10-19T05:54:04;57.30;;;8.50;;
483;SDS011;228;48.922;12.198;2022-10-19T05:56:31;25.17;;;7.13;;
483;SDS011;228;48.922;12.198;2022-10-19T05:58:58;16.83;;;7.60;;
483;SDS011;228;48.922;12.198;2022-10-19T06:01:26;14.63;;;7.53;;
483;SDS011;228;48.922;12.198;2022-10-19T06:03:55;15.80;;;7.07;;
483;SDS011;228;48.922;12.198;2022-10-19T06:06:23;15.80;;;7.50;;
483;SDS011;228;48.922;12.198;2022-10-19T06:08:51;20.20;;;7.87;;
483;SDS011;228;48.922;12.198;2022-10-19T06:11:21;14.00;;;6.40;;
483;SDS011;228;48.922;12.198;2022-10-19T06:14:00;32.70;;;7.60;;
483;SDS011;228;48.922;12.198;2022-10-19T06:16:30;19.13;;;7.03;;
483;SDS011;228;48.922;12.198;2022-10-19T06:18:57;14.77;;;7.50;;
483;SDS011;228;48.922;12.198;2022-10-19T06:21:24;19.70;;;8.10;;
483;SDS011;228;48.922;12.198;2022-10-19T06:23:55;26.10;;;8.37;;
483;SDS011;228;48.922;12.198;2022-10-19T06:26:24;20.87;;;7.30;;
483;SDS011;228;48.922;12.198;2022-10-19T06:28:56;20.93;;;8.20;;
483;SDS011;228;48.922;12.198;2022-10-19T06:31:25;32.57;;;7.77;;
483;SDS011;228;48.922;12.198;2022-10-19T06:33:53;13.33;;;7.33;;
483;SDS011;228;48.922;12.198;2022-10-19T06:36:25;14.17;;;8.00;;
483;SDS011;228;48.922;12.198;2022-10-19T06:38:55;19.93;;;7.17;;
483;SDS011;228;48.922;12.198;2022-10-19T06:41:24;10.53;;;6.60;;
483;SDS011;228;48.922;12.198;2022-10-19T06:43:51;24.83;;;7.70;;
483;SDS011;228;48.922;12.198;2022-10-19T06:46:20;11.43;;;6.93;;
483;SDS011;228;48.922;12.198;2022-10-19T06:48:52;19.27;;;6.80;;
483;SDS011;228;48.922;12.198;2022-10-19T06:51:23;12.07;;;7.27;;
483;SDS011;228;48.922;12.198;2022-10-19T06:53:52;20.53;;;7.03;;
483;SDS011;228;48.922;12.198;2022-10-19T06:56:19;25.53;;;7.17;;
483;SDS011;228;48.922;12.198;2022-10-19T06:58:45;12.80;;;6.47;;
483;SDS011;228;48.922;12.198;2022-10-19T07:01:12;10.77;;;6.60;;
483;SDS011;228;48.922;12.198;2022-10-19T07:03:38;14.23;;;7.90;;
483;SDS011;228;48.922;12.198;2022-10-19T07:06:07;21.60;;;7.03;;
483;SDS011;228;48.922;12.198;2022-10-19T07:08:37;16.43;;;6.83;;
483;SDS011;228;48.922;12.198;2022-10-19T07:11:06;11.00;;;6.13;;
483;SDS011;228;48.922;12.198;2022-10-19T07:13:35;14.60;;;6.60;;
483;SDS011;228;48.922;12.198;2022-10-19T07:16:06;20.37;;;6.70;;
483;SDS011;228;48.922;12.198;2022-10-19T07:18:40;11.67;;;7.43;;
483;SDS011;228;48.922;12.198;2022-10-19T07:21:08;15.23;;;6.80;;
483;SDS011;228;48.922;12.198;2022-10-19T07:23:38;10.73;;;7.43;;
483;SDS011;228;48.922;12.198;2022-10-19T07:26:10;17.87;;;6.70;;
483;SDS011;228;48.922;12.198;2022-10-19T07:28:39;13.20;;;7.00;;
483;SDS011;228;48.922;12.198;2022-10-19T07:31:08;8.97;;;6.63;;
483;SDS011;228;48.922;12.198;2022-10-19T07:33:37;11.83;;;7.40;;
483;SDS011;228;48.922;12.198;2022-10-19T07:36:04;11.00;;;7.67;;
483;SDS011;228;48.922;12.198;2022-10-19T07:38:33;20.93;;;8.37;;
483;SDS011;228;48.922;12.198;2022-10-19T07:41:10;12.77;;;7.63;;
483;SDS011;228;48.922;12.198;2022-10-19T07:43:39;13.17;;;7.77;;
483;SDS011;228;48.922;12.198;2022-10-19T07:46:11;9.90;;;6.83;;
483;SDS011;228;48.922;12.198;2022-10-19T07:48:40;9.53;;;6.90;;
483;SDS011;228;48.922;12.198;2022-10-19T07:51:08;9.80;;;6.37;;
483;SDS011;228;48.922;12.198;2022-10-19T07:53:36;12.70;;;6.57;;
483;SDS011;228;48.922;12.198;2022-10-19T07:56:07;10.30;;;6.87;;
483;SDS011;228;48.922;12.198;2022-10-19T07:58:37;7.80;;;5.83;;
483;SDS011;228;48.922;12.198;2022-10-19T08:01:26;8.83;;;6.13;;
483;SDS011;228;48.922;12.198;2022-10-19T08:03:56;8.83;;;6.63;;
483;SDS011;228;48.922;12.198;2022-10-19T08:06:24;8.47;;;6.07;;
483;SDS011;228;48.922;12.198;2022-10-19T08:08:51;7.57;;;5.50;;
483;SDS011;228;48.922;12.198;2022-10-19T08:11:20;6.93;;;5.80;;
483;SDS011;228;48.922;12.198;2022-10-19T08:13:52;7.23;;;5.93;;
483;SDS011;228;48.922;12.198;2022-10-19T08:16:36;7.43;;;6.30;;
483;SDS011;228;48.922;12.198;2022-10-19T08:19:06;8.50;;;6.60;;
483;SDS011;228;48.922;12.198;2022-10-19T08:21:34;8.97;;;6.70;;
483;SDS011;228;48.922;12.198;2022-10-19T08:24:03;8.37;;;6.23;;
483;SDS011;228;48.922;12.198;2022-10-19T08:26:30;8.90;;;6.43;;
483;SDS011;228;48.922;12.198;2022-10-19T08:29:03;8.23;;;6.50;;
483;SDS011;228;48.922;12.198;2022-10-19T08:31:57;8.03;;;6.27;;
483;SDS011;228;48.922;12.198;2022-10-19T08:34:24;8.67;;;6.70;;
483;SDS011;228;48.922;12.198;2022-10-19T08:36:50;8.97;;;6.87;;
483;SDS011;228;48.922;12.198;2022-10-19T08:39:16;7.57;;;5.90;;
483;SDS011;228;48.922;12.198;2022-10-19T08:41:54;8.10;;;6.93;;
483;SDS011;228;48.922;12.198;2022-10-19T08:47:52;8.53;;;6.90;;
483;SDS011;228;48.922;12.198;2022-10-19T08:50:44;8.23;;;6.50;;
483;SDS011;228;48.922;12.198;2022-10-19T08:53:13;7.77;;;5.97;;
483;SDS011;228;48.922;12.198;2022-10-19T08:56:02;7.90;;;6.77;;
483;SDS011;228;48.922;12.198;2022-10-19T09:01:58;7.90;;;6.03;;
483;SDS011;228;48.922;12.198;2022-10-19T09:04:40;7.53;;;6.03;;
483;SDS011;228;48.922;12.198;2022-10-19T09:07:28;6.37;;;5.40;;
483;SDS011;228;48.922;12.198;2022-10-19T09:10:15;6.93;;;6.10;;
483;SDS011;228;48.922;12.198;2022-10-19T09:12:51;7.83;;;5.83;;
483;SDS011;228;48.922;12.198;2022-10-19T09:18:27;7.07;;;5.57;;
483;SDS011;228;48.922;12.198;2022-10-19T09:21:43;6.50;;;5.57;;
483;SDS011;228;48.922;12.198;2022-10-19T09:26:31;6.97;;;5.87;;
483;SDS011;228;48.922;12.198;2022-10-19T09:29:23;6.13;;;4.90;;
483;SDS011;228;48.922;12.198;2022-10-19T09:31:52;5.53;;;4.70;;
483;SDS011;228;48.922;12.198;2022-10-19T09:34:28;6.80;;;5.03;;
483;SDS011;228;48.922;12.198;2022-10-19T09:37:01;6.37;;;5.00;;
483;SDS011;228;48.922;12.198;2022-10-19T09:39:28;7.57;;;5.90;;
483;SDS011;228;48.922;12.198;2022-10-19T09:41:56;7.33;;;5.20;;
483;SDS011;228;48.922;12.198;2022-10-19T09:44:44;6.37;;;5.37;;
483;SDS011;228;48.922;12.198;2022-10-19T09:50:13;5.87;;;4.73;;
483;SDS011;228;48.922;12.198;2022-10-19T09:52:40;5.80;;;4.83;;
483;SDS011;228;48.922;12.198;2022-10-19T09:57:58;4.93;;;4.43;;
483;SDS011;228;48.922;12.198;2022-10-19T10:00:51;5.43;;;4.80;;
483;SDS011;228;48.922;12.198;2022-10-19T10:05:50;5.35;;;4.78;;
483;SDS011;228;48.922;12.198;2022-10-19T10:08:19;5.97;;;4.63;;
483;SDS011;228;48.922;12.198;2022-10-19T10:10:56;6.47;;;5.30;;
483;SDS011;228;48.922;12.198;2022-10-19T10:13:53;6.28;;;5.57;;
483;SDS011;228;48.922;12.198;2022-10-19T10:16:21;6.30;;;5.43;;
483;SDS011;228;48.922;12.198;2022-10-19T10:18:52;6.47;;;5.60;;
483;SDS011;228;48.922;12.198;2022-10-19T10:21:29;6.63;;;5.17;;
483;SDS011;228;48.922;12.198;2022-10-19T10:24:19;6.33;;;5.27;;
483;SDS011;228;48.922;12.198;2022-10-19T10:26:55;5.10;;;4.60;;
483;SDS011;228;48.922;12.198;2022-10-19T10:29:27;5.47;;;4.77;;
483;SDS011;228;48.922;12.198;2022-10-19T10:32:07;5.43;;;4.93;;
483;SDS011;228;48.922;12.198;2022-10-19T10:46:04;4.90;;;4.33;;
483;SDS011;228;48.922;12.198;2022-10-19T10:48:41;4.47;;;3.90;;
483;SDS011;228;48.922;12.198;2022-10-19T10:51:20;4.57;;;4.18;;
483;SDS011;228;48.922;12.198;2022-10-19T10:54:05;4.45;;;3.55;;
483;SDS011;228;48.922;12.198;2022-10-19T10:57:02;3.88;;;3.50;;
483;SDS011;228;48.922;12.198;2022-10-19T11:05:16;5.28;;;4.25;;
483;SDS011;228;48.922;12.198;2022-10-19T11:13:32;4.38;;;3.85;;
483;SDS011;228;48.922;12.198;2022-10-19T11:16:16;4.43;;;4.03;;
483;SDS011;228;48.922;12.198;2022-10-19T11:18:47;4.85;;;4.20;;
483;SDS011;228;48.922;12.198;2022-10-19T11:21:29;4.53;;;4.03;;
483;SDS011;228;48.922;12.198;2022-10-19T11:27:12;4.10;;;3.50;;
483;SDS011;228;48.922;12.198;2022-10-19T11:30:16;6.28;;;4.53;;
483;SDS011;228;48.922;12.198;2022-10-19T11:36:16;5.80;;;4.50;;
483;SDS011;228;48.922;12.198;2022-10-19T11:52:11;4.38;;;3.97;;
483;SDS011;228;48.922;12.198;2022-10-19T12:14:23;4.13;;;3.72;;
483;SDS011;228;48.922;12.198;2022-10-19T12:16:57;3.97;;;3.63;;
483;SDS011;228;48.922;12.198;2022-10-19T12:19:32;4.03;;;3.63;;
483;SDS011;228;48.922;12.198;2022-10-19T12:22:05;4.45;;;4.05;;
483;SDS011;228;48.922;12.198;2022-10-19T12:24:39;5.10;;;3.88;;
483;SDS011;228;48.922;12.198;2022-10-19T12:27:05;4.07;;;3.60;;
483;SDS011;228;48.922;12.198;2022-10-19T12:29:38;4.15;;;3.70;;
483;SDS011;228;48.922;12.198;2022-10-19T12:32:08;3.88;;;3.03;;
483;SDS011;228;48.922;12.198;2022-10-19T12:40:36;3.20;;;2.90;;
483;SDS011;228;48.922;12.198;2022-10-19T12:43:18;3.60;;;3.30;;
483;SDS011;228;48.922;12.198;2022-10-19T12:51:55;2.65;;;2.42;;
483;SDS011;228;48.922;12.198;2022-10-19T12:54:25;2.60;;;2.40;;
483;SDS011;228;48.922;12.198;2022-10-19T12:56:54;3.10;;;2.80;;
483;SDS011;228;48.922;12.198;2022-10-19T12:59:23;3.45;;;3.15;;
483;SDS011;228;48.922;12.198;2022-10-19T13:02:00;3.67;;;2.70;;
483;SDS011;228;48.922;12.198;2022-10-19T13:04:31;3.55;;;3.20;;
483;SDS011;228;48.922;12.198;2022-10-19T13:07:03;2.92;;;2.65;;
483;SDS011;228;48.922;12.198;2022-10-19T13:09:39;2.92;;;2.72;;
483;SDS011;228;48.922;12.198;2022-10-19T13:22:41;3.42;;;3.10;;
483;SDS011;228;48.922;12.198;2022-10-19T13:31:01;3.25;;;2.95;;
483;SDS011;228;48.922;12.198;2022-10-19T13:43:54;2.88;;;2.67;;
483;SDS011;228;48.922;12.198;2022-10-19T14:06:46;3.10;;;2.80;;
483;SDS011;228;48.922;12.198;2022-10-19T14:12:26;3.40;;;3.05;;
483;SDS011;228;48.922;12.198;2022-10-19T14:14:54;3.33;;;2.90;;
483;SDS011;228;48.922;12.198;2022-10-19T14:17:24;3.38;;;2.90;;
483;SDS011;228;48.922;12.198;2022-10-19T14:19:58;3.10;;;2.80;;
483;SDS011;228;48.922;12.198;2022-10-19T14:22:30;3.35;;;3.03;;
483;SDS011;228;48.922;12.198;2022-10-19T14:24:58;3.20;;;2.90;;
483;SDS011;228;48.922;12.198;2022-10-19T14:27:37;3.17;;;2.88;;
483;SDS011;228;48.922;12.198;2022-10-19T14:30:04;3.13;;;2.83;;
483;SDS011;228;48.922;12.198;2022-10-19T14:32:31;3.17;;;2.88;;
483;SDS011;228;48.922;12.198;2022-10-19T14:35:04;3.30;;;3.00;;
483;SDS011;228;48.922;12.198;2022-10-19T14:37:47;3.35;;;3.05;;
483;SDS011;228;48.922;12.198;2022-10-19T14:42:58;2.90;;;2.70;;
483;SDS011;228;48.922;12.198;2022-10-19T14:45:26;3.08;;;2.78;;
483;SDS011;228;48.922;12.198;2022-10-19T14:48:05;2.80;;;2.60;;
483;SDS011;228;48.922;12.198;2022-10-19T14:50:42;2.65;;;2.45;;
483;SDS011;228;48.922;12.198;2022-10-19T14:53:31;2.75;;;2.40;;
483;SDS011;228;48.922;12.198;2022-10-19T14:59:44;2.85;;;2.55;;
483;SDS011;228;48.922;12.198;2022-10-19T15:04:52;2.88;;;2.58;;
483;SDS011;228;48.922;12.198;2022-10-19T15:07:25;2.60;;;2.40;;
483;SDS011;228;48.922;12.198;2022-10-19T15:10:14;3.15;;;2.63;;
483;SDS011;228;48.922;12.198;2022-10-19T15:12:48;3.33;;;2.58;;
483;SDS011;228;48.922;12.198;2022-10-19T15:17:54;3.75;;;2.42;;
483;SDS011;228;48.922;12.198;2022-10-19T15:20:29;2.72;;;2.42;;
483;SDS011;228;48.922;12.198;2022-10-19T15:23:28;2.83;;;2.53;;
483;SDS011;228;48.922;12.198;2022-10-19T15:26:19;3.67;;;2.92;;
483;SDS011;228;48.922;12.198;2022-10-19T15:29:05;4.65;;;3.20;;
483;SDS011;228;48.922;12.198;2022-10-19T15:31:45;3.72;;;3.13;;
483;SDS011;228;48.922;12.198;2022-10-19T15:34:18;6.60;;;3.05;;
483;SDS011;228;48.922;12.198;2022-10-19T15:36:57;4.15;;;3.20;;
483;SDS011;228;48.922;12.198;2022-10-19T15:39:28;3.85;;;3.10;;
483;SDS011;228;48.922;12.198;2022-10-19T15:50:52;4.73;;;3.67;;
483;SDS011;228;48.922;12.198;2022-10-19T15:53:22;5.73;;;3.70;;
483;SDS011;228;48.922;12.198;2022-10-19T15:55:50;4.87;;;3.93;;
483;SDS011;228;48.922;12.198;2022-10-19T15:58:16;6.30;;;3.97;;
483;SDS011;228;48.922;12.198;2022-10-19T16:00:42;5.33;;;3.97;;
483;SDS011;228;48.922;12.198;2022-10-19T16:03:09;5.87;;;4.00;;
483;SDS011;228;48.922;12.198;2022-10-19T16:05:35;4.77;;;3.80;;
483;SDS011;228;48.922;12.198;2022-10-19T16:08:12;4.33;;;3.73;;
483;SDS011;228;48.922;12.198;2022-10-19T16:10:39;5.47;;;3.70;;
483;SDS011;228;48.922;12.198;2022-10-19T16:13:05;5.70;;;4.30;;
483;SDS011;228;48.922;12.198;2022-10-19T16:15:31;4.93;;;3.97;;
483;SDS011;228;48.922;12.198;2022-10-19T16:17:58;4.97;;;3.90;;
483;SDS011;228;48.922;12.198;2022-10-19T16:20:26;8.90;;;4.17;;
483;SDS011;228;48.922;12.198;2022-10-19T16:22:54;5.10;;;4.13;;
483;SDS011;228;48.922;12.198;2022-10-19T16:25:21;4.03;;;3.43;;
483;SDS011;228;48.922;12.198;2022-10-19T16:27:47;6.47;;;4.20;;
483;SDS011;228;48.922;12.198;2022-10-19T16:30:16;6.97;;;3.87;;
483;SDS011;228;48.922;12.198;2022-10-19T16:32:42;6.17;;;4.10;;
483;SDS011;228;48.922;12.198;2022-10-19T16:35:08;6.17;;;4.10;;
483;SDS011;228;48.922;12.198;2022-10-19T16:37:37;10.97;;;6.83;;
483;SDS011;228;48.922;12.198;2022-10-19T16:40:03;30.50;;;12.83;;
483;SDS011;228;48.922;12.198;2022-10-19T16:42:30;28.97;;;14.53;;
483;SDS011;228;48.922;12.198;2022-10-19T16:44:57;26.80;;;12.70;;
483;SDS011;228;48.922;12.198;2022-10-19T16:47:23;22.23;;;12.57;;
483;SDS011;228;48.922;12.198;2022-10-19T16:49:54;18.57;;;11.50;;
483;SDS011;228;48.922;12.198;2022-10-19T16:52:26;14.00;;;8.30;;
483;SDS011;228;48.922;12.198;2022-10-19T16:54:56;8.70;;;6.97;;
483;SDS011;228;48.922;12.198;2022-10-19T16:57:23;8.93;;;7.07;;
483;SDS011;228;48.922;12.198;2022-10-19T16:59:50;9.90;;;6.50;;
483;SDS011;228;48.922;12.198;2022-10-19T17:02:18;6.93;;;6.10;;
483;SDS011;228;48.922;12.198;2022-10-19T17:04:45;9.40;;;7.33;;
483;SDS011;228;48.922;12.198;2022-10-19T17:07:12;9.00;;;6.33;;
483;SDS011;228;48.922;12.198;2022-10-19T17:09:39;9.07;;;6.03;;
483;SDS011;228;48.922;12.198;2022-10-19T17:12:05;7.77;;;5.67;;
483;SDS011;228;48.922;12.198;2022-10-19T17:14:32;7.97;;;5.40;;
483;SDS011;228;48.922;12.198;2022-10-19T17:16:58;10.47;;;6.90;;
483;SDS011;228;48.922;12.198;2022-10-19T17:19:24;11.53;;;6.17;;
483;SDS011;228;48.922;12.198;2022-10-19T17:21:51;9.67;;;6.33;;
483;SDS011;228;48.922;12.198;2022-10-19T17:24:19;8.60;;;6.43;;
483;SDS011;228;48.922;12.198;2022-10-19T17:26:47;8.17;;;5.90;;
483;SDS011;228;48.922;12.198;2022-10-19T17:29:16;7.53;;;6.23;;
483;SDS011;228;48.922;12.198;2022-10-19T17:31:43;8.70;;;5.97;;
483;SDS011;228;48.922;12.198;2022-10-19T17:34:09;8.97;;;5.77;;
483;SDS011;228;48.922;12.198;2022-10-19T17:36:37;6.70;;;5.80;;
483;SDS011;228;48.922;12.198;2022-10-19T17:39:07;7.93;;;6.30;;
483;SDS011;228;48.922;12.198;2022-10-19T17:41:39;9.60;;;6.93;;
483;SDS011;228;48.922;12.198;2022-10-19T17:44:05;10.07;;;6.80;;
483;SDS011;228;48.922;12.198;2022-10-19T17:46:32;8.67;;;6.47;;
483;SDS011;228;48.922;12.198;2022-10-19T17:48:59;11.23;;;6.40;;
483;SDS011;228;48.922;12.198;2022-10-19T17:51:30;8.97;;;6.60;;
483;SDS011;228;48.922;12.198;2022-10-19T17:53:59;10.37;;;6.90;;
483;SDS011;228;48.922;12.198;2022-10-19T17:56:29;10.40;;;7.13;;
483;SDS011;228;48.922;12.198;2022-10-19T17:58:56;7.63;;;6.70;;
483;SDS011;228;48.922;12.198;2022-10-19T18:01:23;10.33;;;7.07;;
483;SDS011;228;48.922;12.198;2022-10-19T18:03:51;9.40;;;6.03;;
483;SDS011;228;48.922;12.198;2022-10-19T18:06:22;10.13;;;7.13;;
483;SDS011;228;48.922;12.198;2022-10-19T18:08:56;8.93;;;6.63;;
483;SDS011;228;48.922;12.198;2022-10-19T18:11:28;8.77;;;6.70;;
483;SDS011;228;48.922;12.198;2022-10-19T18:13:59;10.40;;;6.67;;
483;SDS011;228;48.922;12.198;2022-10-19T18:16:27;8.80;;;5.93;;
483;SDS011;228;48.922;12.198;2022-10-19T18:19:18;9.83;;;6.60;;
483;SDS011;228;48.922;12.198;2022-10-19T18:21:45;9.70;;;6.83;;
483;SDS011;228;48.922;12.198;2022-10-19T18:24:14;11.93;;;7.07;;
483;SDS011;228;48.922;12.198;2022-10-19T18:26:44;8.13;;;6.20;;
483;SDS011;228;48.922;12.198;2022-10-19T18:29:12;8.67;;;6.23;;
483;SDS011;228;48.922;12.198;2022-10-19T18:31:46;15.67;;;7.30;;
483;SDS011;228;48.922;12.198;2022-10-19T18:34:16;10.67;;;8.03;;
483;SDS011;228;48.922;12.198;2022-10-19T18:36:45;13.00;;;7.70;;
483;SDS011;228;48.922;12.198;2022-10-19T18:39:12;17.63;;;9.27;;
483;SDS011;228;48.922;12.198;2022-10-19T18:41:40;13.63;;;7.80;;
483;SDS011;228;48.922;12.198;2022-10-19T18:44:06;8.43;;;6.63;;
483;SDS011;228;48.922;12.198;2022-10-19T18:46:35;10.63;;;7.53;;
483;SDS011;228;48.922;12.198;2022-10-19T18:49:03;10.10;;;7.23;;
483;SDS011;228;48.922;12.198;2022-10-19T18:51:32;9.90;;;7.60;;
483;SDS011;228;48.922;12.198;2022-10-19T18:53:59;7.60;;;6.07;;
483;SDS011;228;48.922;12.198;2022-10-19T18:56:26;9.27;;;6.87;;
483;SDS011;228;48.922;12.198;2022-10-19T18:58:53;10.63;;;6.97;;
483;SDS011;228;48.922;12.198;2022-10-19T19:01:22;8.70;;;6.83;;